Terminal Aerodrome Forecast
Issued by NWS Cleveland, OH

Home | Current Version | Previous Version | Graphics & Text | Print | Product List | Glossary On
Versions: 1 2 3 4 5 6 7 8 9 10 11 12 13 14 15 16
862
FTUS41 KCLE 252324
TAFMFD
TAF
KMFD 252324Z 2600/2624 12005KT P6SM SCT250
     FM260900 17008KT P6SM OVC100
     FM261330 25012KT 5SM -SHRA OVC025
     FM261900 27012G20KT P6SM BKN070=

USA.gov is the U.S. government's official web portal to all federal, state and local government web resources and services.